Time;durP1;ratioP1;P1;durP2;ratioP2;P2;SDS_P1;SDS_P2;PMS_P1;PMS_P2;Temp;Humidity;BMP_temperature;BMP_pressure;BME280_temperature;BME280_humidity;BME280_pressure;Samples;Min_cycle;Max_cycle;Signal;HPM_P1;HPM_P2
2022/05/17 00:00:29;;;;;;;6.28;3.65;;;14.00;99.90;;;;;;5064567;28;20052;-69
2022/05/17 00:02:57;;;;;;;7.57;3.63;;;14.00;99.90;;;;;;5064684;28;20040;-68
2022/05/17 00:05:24;;;;;;;7.75;3.58;;;14.00;99.90;;;;;;5068418;28;20051;-68
2022/05/17 00:07:50;;;;;;;6.72;3.83;;;14.00;99.90;;;;;;5070477;28;20045;-68
2022/05/17 00:10:17;;;;;;;5.05;3.70;;;14.00;99.90;;;;;;5064697;28;20048;-68
2022/05/17 00:12:44;;;;;;;5.82;3.97;;;14.00;99.90;;;;;;5061812;28;20092;-68
2022/05/17 00:15:11;;;;;;;6.07;3.63;;;14.00;99.90;;;;;;5068787;28;20078;-68
2022/05/17 00:17:37;;;;;;;3.15;2.38;;;14.00;99.90;;;;;;5069672;28;20397;-68
2022/05/17 00:20:05;;;;;;;3.97;2.65;;;13.90;99.90;;;;;;5065724;28;20037;-68
2022/05/17 00:22:32;;;;;;;5.95;3.38;;;13.80;99.90;;;;;;5054748;28;20091;-68
2022/05/17 00:25:00;;;;;;;4.18;2.90;;;13.80;99.90;;;;;;5059256;28;20044;-68
2022/05/17 00:27:26;;;;;;;5.40;3.30;;;13.80;99.90;;;;;;5054091;28;20041;-68
2022/05/17 00:29:53;;;;;;;5.93;3.47;;;13.80;99.90;;;;;;5036190;28;20041;-68
2022/05/17 00:32:20;;;;;;;5.43;3.50;;;13.80;99.90;;;;;;5060900;28;20048;-68
2022/05/17 00:34:47;;;;;;;8.77;3.15;;;13.70;99.90;;;;;;5064110;28;20052;-68
2022/05/17 00:37:14;;;;;;;6.53;4.55;;;13.70;99.90;;;;;;5054603;28;20049;-68
2022/05/17 00:39:41;;;;;;;7.18;3.45;;;13.70;99.90;;;;;;5055353;28;20071;-68
2022/05/17 00:42:08;;;;;;;6.43;3.13;;;13.80;99.90;;;;;;5068787;28;20041;-69
2022/05/17 00:44:44;;;;;;;;;;;13.70;99.90;;;;;;5054507;28;20088;-68
2022/05/17 00:47:14;;;;;;;5.68;2.75;;;13.60;99.90;;;;;;5054400;28;19950;-69
2022/05/17 00:50:04;;;;;;;5.57;3.08;;;13.60;99.90;;;;;;5055137;28;20036;-69
2022/05/17 00:52:41;;;;;;;6.18;2.90;;;13.50;99.90;;;;;;5065883;28;20049;-67
2022/05/17 00:55:16;;;;;;;5.82;3.35;;;13.50;99.90;;;;;;5054129;28;20095;-69
2022/05/17 00:58:24;;;;;;;9.63;2.60;;;13.50;99.90;;;;;;5036095;28;20049;-68
2022/05/17 01:01:16;;;;;;;4.50;2.63;;;13.50;99.90;;;;;;5050105;28;20057;-68
2022/05/17 01:03:50;;;;;;;5.55;2.92;;;13.50;99.90;;;;;;5073641;28;20056;-69
2022/05/17 01:06:17;;;;;;;5.63;2.50;;;13.50;99.90;;;;;;5073948;28;20485;-68
2022/05/17 01:08:44;;;;;;;5.78;2.75;;;13.60;99.90;;;;;;5070654;28;20115;-68
2022/05/17 01:11:11;;;;;;;6.35;3.10;;;13.50;99.90;;;;;;5053335;28;20045;-68
2022/05/17 01:16:24;;;;;;;4.70;2.50;;;13.50;99.90;;;;;;5060972;28;20056;-68
2022/05/17 01:18:52;;;;;;;6.03;2.33;;;13.50;99.90;;;;;;5062463;28;20056;-68
2022/05/17 01:21:19;;;;;;;5.78;2.60;;;13.50;99.90;;;;;;5053222;28;20045;-69
2022/05/17 01:23:46;;;;;;;6.95;2.30;;;13.50;99.90;;;;;;5053632;28;20094;-68
2022/05/17 01:26:18;;;;;;;10.73;2.50;;;13.50;99.90;;;;;;5066992;28;20051;-68
2022/05/17 01:28:45;;;;;;;10.50;2.45;;;13.50;99.90;;;;;;5063426;28;20041;-69
2022/05/17 01:31:12;;;;;;;3.70;2.10;;;13.50;99.90;;;;;;5053102;28;20444;-68
2022/05/17 01:33:39;;;;;;;3.47;2.13;;;13.50;99.90;;;;;;5053868;28;20409;-68
2022/05/17 01:36:10;;;;;;;5.45;2.40;;;13.50;99.90;;;;;;5068635;28;20037;-68
2022/05/17 01:38:37;;;;;;;7.60;2.60;;;13.50;99.90;;;;;;5052628;28;20075;-68
2022/05/17 01:41:06;;;;;;;3.70;2.53;;;13.50;99.90;;;;;;5052806;28;20674;-69
2022/05/17 01:43:32;;;;;;;6.40;3.00;;;13.50;99.90;;;;;;5061148;28;20051;-68
2022/05/17 01:46:08;;;;;;;4.28;2.40;;;13.50;99.90;;;;;;5061126;28;20049;-67
2022/05/17 01:55:41;;;;;;;3.78;2.40;;;13.50;99.90;;;;;;5093346;28;20050;-62
2022/05/17 01:58:08;;;;;;;4.85;2.33;;;13.30;99.90;;;;;;5084449;28;20040;-63
2022/05/17 02:00:36;;;;;;;7.72;2.17;;;13.30;99.90;;;;;;5088202;28;20044;-62
2022/05/17 02:03:03;;;;;;;;;;;13.30;99.90;;;;;;5086026;28;20040;-63
2022/05/17 02:05:30;;;;;;;6.85;1.90;;;13.30;99.90;;;;;;5092603;28;19924;-62
2022/05/17 02:07:57;;;;;;;13.00;2.95;;;13.30;99.90;;;;;;5093113;28;20044;-62
2022/05/17 02:10:25;;;;;;;7.88;2.00;;;13.20;99.90;;;;;;5092716;28;20439;-62
2022/05/17 02:12:54;;;;;;;11.32;1.98;;;13.20;99.90;;;;;;5093095;28;20523;-62
2022/05/17 02:15:21;;;;;;;6.63;2.65;;;13.20;99.90;;;;;;5087051;28;20048;-62
2022/05/17 02:17:49;;;;;;;8.68;2.33;;;13.20;99.90;;;;;;5091621;28;20062;-62
2022/05/17 02:20:16;;;;;;;;;;;13.20;99.90;;;;;;5075114;28;20043;-62
2022/05/17 02:22:43;;;;;;;4.13;2.35;;;13.10;99.90;;;;;;5092850;28;19942;-62
2022/05/17 02:25:11;;;;;;;6.35;2.53;;;13.20;99.90;;;;;;5092444;28;20047;-62
2022/05/17 02:27:39;;;;;;;2.85;2.28;;;13.20;99.90;;;;;;5092729;28;20062;-62
2022/05/17 02:30:08;;;;;;;3.63;2.10;;;13.30;99.90;;;;;;5092340;28;20044;-62
2022/05/17 02:32:34;;;;;;;7.22;2.67;;;13.30;99.90;;;;;;5092026;28;20036;-63
2022/05/17 02:35:01;;;;;;;6.60;2.63;;;13.30;99.90;;;;;;5092598;28;20097;-62
2022/05/17 02:37:28;;;;;;;3.67;2.20;;;13.20;99.90;;;;;;5092480;28;20040;-62
2022/05/17 02:39:55;;;;;;;4.97;2.05;;;13.20;99.90;;;;;;5092605;28;20424;-62
2022/05/17 02:42:22;;;;;;;7.88;2.45;;;13.20;99.90;;;;;;5088337;28;20047;-62
2022/05/17 02:44:48;;;;;;;7.60;2.35;;;13.20;99.90;;;;;;5091128;28;20081;-62
2022/05/17 02:47:15;;;;;;;5.35;2.63;;;13.20;99.90;;;;;;5092576;28;20446;-62
2022/05/17 02:49:45;;;;;;;5.50;2.72;;;13.20;99.90;;;;;;5092264;28;20446;-62
2022/05/17 02:52:12;;;;;;;3.88;2.60;;;13.20;99.90;;;;;;5091429;28;20047;-62
2022/05/17 02:54:40;;;;;;;5.93;2.85;;;13.40;99.90;;;;;;5092313;28;20389;-62
2022/05/17 02:57:07;;;;;;;;;;;13.40;99.90;;;;;;5092761;28;20048;-62
2022/05/17 02:59:35;;;;;;;6.85;2.67;;;13.50;99.90;;;;;;5092038;28;19920;-62
2022/05/17 03:02:02;;;;;;;4.70;2.38;;;13.50;99.90;;;;;;5091236;28;20040;-62
2022/05/17 03:04:30;;;;;;;6.60;2.15;;;13.40;99.90;;;;;;5091966;28;20040;-62
2022/05/17 03:06:57;;;;;;;5.55;2.13;;;13.40;99.90;;;;;;5092207;28;20054;-62
2022/05/17 03:09:24;;;;;;;5.25;2.20;;;13.30;99.90;;;;;;5091475;28;20047;-62
2022/05/17 03:11:51;;;;;;;8.15;2.25;;;13.20;99.90;;;;;;5091499;28;20511;-62
2022/05/17 03:14:18;;;;;;;4.65;2.28;;;13.20;99.90;;;;;;5073870;28;20040;-62
2022/05/17 03:16:45;;;;;;;6.38;2.17;;;13.30;99.90;;;;;;5091374;28;20040;-62
2022/05/17 03:19:12;;;;;;;;;;;13.30;99.90;;;;;;5085670;28;20078;-62
2022/05/17 03:21:39;;;;;;;4.28;2.17;;;13.30;99.90;;;;;;5091489;28;20292;-62
2022/05/17 03:24:06;;;;;;;4.25;2.13;;;13.20;99.90;;;;;;5073908;28;20047;-62
2022/05/17 03:26:53;;;;;;;4.07;2.33;;;13.20;99.90;;;;;;5087936;28;20078;-62
2022/05/17 03:29:20;;;;;;;2.97;2.03;;;13.10;99.90;;;;;;5091709;28;20032;-62
2022/05/17 03:31:46;;;;;;;4.50;2.42;;;13.10;99.90;;;;;;5091292;28;20465;-62
2022/05/17 03:34:13;;;;;;;4.15;2.22;;;13.20;99.90;;;;;;5091741;28;20048;-62
2022/05/17 03:36:40;;;;;;;11.57;2.53;;;13.20;99.90;;;;;;5091211;28;20465;-62
2022/05/17 03:39:07;;;;;;;5.55;2.38;;;13.20;99.90;;;;;;5091520;28;20040;-62
2022/05/17 03:41:33;;;;;;;6.45;2.40;;;13.20;99.90;;;;;;5091228;28;20047;-62
2022/05/17 03:44:00;;;;;;;6.25;2.90;;;13.20;99.90;;;;;;5091054;28;20036;-62
2022/05/17 03:46:27;;;;;;;5.57;2.42;;;13.30;99.90;;;;;;5091285;28;20051;-62
2022/05/17 03:48:54;;;;;;;5.53;2.40;;;13.20;99.90;;;;;;5091398;28;20043;-62
2022/05/17 03:51:21;;;;;;;7.82;2.20;;;13.30;99.90;;;;;;5073490;28;20047;-62
2022/05/17 03:53:50;;;;;;;7.00;2.42;;;13.20;99.90;;;;;;5090994;28;20097;-62
2022/05/17 03:56:17;;;;;;;8.85;2.47;;;13.20;99.90;;;;;;5091465;28;20488;-62
2022/05/17 03:58:44;;;;;;;5.50;2.70;;;13.20;99.90;;;;;;5091404;28;20048;-62
2022/05/17 04:01:12;;;;;;;8.30;2.50;;;13.20;99.90;;;;;;5093747;28;20105;-62
2022/05/17 04:03:41;;;;;;;8.85;2.33;;;13.30;99.90;;;;;;5089728;28;20083;-62
2022/05/17 04:06:07;;;;;;;6.15;2.17;;;13.30;99.90;;;;;;5095602;28;20042;-62
2022/05/17 04:08:36;;;;;;;5.65;2.60;;;13.30;99.90;;;;;;5095680;28;20040;-62
2022/05/17 04:11:06;;;;;;;9.63;2.20;;;13.30;99.90;;;;;;5095132;28;20036;-62
2022/05/17 04:13:34;;;;;;;5.28;2.20;;;13.30;99.90;;;;;;5094618;28;20059;-62
2022/05/17 04:16:02;;;;;;;5.70;2.42;;;13.30;99.90;;;;;;5091554;28;20040;-62
2022/05/17 04:18:29;;;;;;;8.57;2.47;;;13.30;99.90;;;;;;5095181;28;20044;-62
2022/05/17 04:21:00;;;;;;;3.70;2.30;;;13.30;99.90;;;;;;5095041;28;20086;-62
2022/05/17 04:23:27;;;;;;;6.38;2.25;;;13.30;99.90;;;;;;5094592;28;20048;-62
2022/05/17 04:25:54;;;;;;;6.90;2.40;;;13.30;99.90;;;;;;5092825;28;20048;-62
2022/05/17 04:28:21;;;;;;;8.50;2.83;;;13.30;99.90;;;;;;5095139;28;20708;-62
2022/05/17 04:30:48;;;;;;;3.53;2.47;;;13.40;99.90;;;;;;5094916;28;20052;-62
2022/05/17 04:33:16;;;;;;;6.97;2.83;;;13.30;99.90;;;;;;5094536;28;20496;-62
2022/05/17 04:35:43;;;;;;;7.57;1.95;;;13.30;99.90;;;;;;5091605;28;20090;-62
2022/05/17 04:38:10;;;;;;;3.33;1.98;;;13.40;99.90;;;;;;5074668;28;20044;-62
2022/05/17 04:40:38;;;;;;;4.47;2.40;;;13.40;99.90;;;;;;5082955;28;20048;-62
2022/05/17 04:43:05;;;;;;;9.15;2.33;;;13.50;99.90;;;;;;5094783;28;20044;-63
2022/05/17 04:45:32;;;;;;;5.07;2.00;;;13.50;99.90;;;;;;5091463;28;20497;-62
2022/05/17 04:47:59;;;;;;;5.93;2.28;;;13.50;99.90;;;;;;5085133;28;20087;-62
2022/05/17 04:50:26;;;;;;;4.95;2.22;;;13.60;99.90;;;;;;5085553;28;20106;-62
2022/05/17 04:52:53;;;;;;;8.15;2.30;;;13.60;99.90;;;;;;5088547;28;20545;-62
2022/05/17 04:55:21;;;;;;;;;;;13.70;99.90;;;;;;5092206;28;20511;-62
2022/05/17 04:57:48;;;;;;;6.72;2.30;;;13.70;99.90;;;;;;5094126;28;19920;-63
2022/05/17 05:00:21;;;;;;;10.05;2.35;;;13.70;99.90;;;;;;5093097;28;20056;-62
2022/05/17 05:02:48;;;;;;;8.48;2.70;;;13.80;99.90;;;;;;5084611;28;20036;-62
2022/05/17 05:05:16;;;;;;;5.25;2.42;;;13.80;99.90;;;;;;5083033;28;20040;-63
2022/05/17 05:07:44;;;;;;;6.82;3.70;;;13.90;99.90;;;;;;5087970;28;20068;-62
2022/05/17 05:10:12;;;;;;;7.45;3.35;;;13.80;99.90;;;;;;5085146;28;20279;-62
2022/05/17 05:12:39;;;;;;;3.42;2.92;;;13.90;99.90;;;;;;5075098;28;20043;-62
2022/05/17 05:15:07;;;;;;;6.90;3.33;;;14.00;99.90;;;;;;5087363;28;20044;-62
2022/05/17 05:17:36;;;;;;;4.72;2.53;;;14.10;99.90;;;;;;5094243;28;20043;-62
2022/05/17 05:20:05;;;;;;;4.15;2.67;;;14.20;99.90;;;;;;5093875;28;20466;-62
2022/05/17 05:22:33;;;;;;;3.90;2.47;;;14.30;99.90;;;;;;5086583;28;20093;-62
2022/05/17 05:25:00;;;;;;;4.80;2.78;;;14.40;99.90;;;;;;5086085;28;20032;-62
2022/05/17 05:27:32;;;;;;;5.03;2.67;;;14.50;99.90;;;;;;5090778;28;20072;-62
2022/05/17 05:30:00;;;;;;;5.35;2.35;;;14.60;99.90;;;;;;5087618;28;20550;-62
2022/05/17 05:32:27;;;;;;;9.98;3.35;;;14.60;99.90;;;;;;5084385;28;20547;-62
2022/05/17 05:34:53;;;;;;;7.57;2.72;;;14.60;99.90;;;;;;5093470;28;20036;-62
2022/05/17 05:37:20;;;;;;;5.72;2.65;;;14.60;99.90;;;;;;5089803;28;20044;-62
2022/05/17 05:39:48;;;;;;;11.50;3.22;;;14.60;99.90;;;;;;5075581;28;20546;-62
2022/05/17 05:42:15;;;;;;;8.20;3.33;;;14.80;99.90;;;;;;5093261;28;20063;-62
2022/05/17 05:44:42;;;;;;;6.05;2.63;;;14.80;99.90;;;;;;5075707;28;20524;-62
2022/05/17 05:47:08;;;;;;;4.32;2.80;;;14.90;99.90;;;;;;5075699;28;20048;-63
2022/05/17 05:50:01;;;;;;;5.15;3.20;;;15.10;99.90;;;;;;5074043;28;20504;-60
2022/05/17 05:52:29;;;;;;;8.85;3.33;;;15.10;99.90;;;;;;5091733;28;20040;-62
2022/05/17 05:54:56;;;;;;;4.38;2.65;;;15.20;99.90;;;;;;5091645;28;20036;-62
2022/05/17 05:57:23;;;;;;;9.13;2.97;;;15.40;99.90;;;;;;5088563;28;20036;-62
2022/05/17 05:59:49;;;;;;;5.47;2.80;;;15.40;99.90;;;;;;5090462;28;20438;-62
2022/05/17 06:02:16;;;;;;;4.00;2.72;;;15.50;99.90;;;;;;5091583;28;20040;-62
2022/05/17 06:04:43;;;;;;;7.13;3.58;;;15.70;99.90;;;;;;5091612;28;20785;-62
2022/05/17 06:07:10;;;;;;;;;;;15.70;99.90;;;;;;5093054;28;20036;-62
2022/05/17 06:09:37;;;;;;;8.48;3.63;;;15.80;99.90;;;;;;5093015;28;19930;-62
2022/05/17 06:12:05;;;;;;;6.45;3.10;;;15.80;99.90;;;;;;5092746;28;20442;-62
2022/05/17 06:14:31;;;;;;;3.75;2.55;;;15.90;99.90;;;;;;5092611;28;20036;-62
2022/05/17 06:16:58;;;;;;;4.38;2.90;;;15.90;99.90;;;;;;5084649;28;20047;-62
2022/05/17 06:19:27;;;;;;;5.03;3.55;;;16.00;99.90;;;;;;5074831;28;20032;-62
2022/05/17 06:21:54;;;;;;;7.43;3.25;;;15.90;99.90;;;;;;5092803;28;20035;-62
2022/05/17 06:24:21;;;;;;;4.88;2.80;;;16.10;99.90;;;;;;5092260;28;20110;-62
2022/05/17 06:26:47;;;;;;;5.60;3.00;;;16.20;99.90;;;;;;5092014;28;20040;-62
2022/05/17 06:29:14;;;;;;;3.83;2.90;;;16.30;99.90;;;;;;5092819;28;20093;-63
2022/05/17 06:31:41;;;;;;;6.50;3.78;;;16.30;99.90;;;;;;5092505;28;20045;-62
2022/05/17 06:34:08;;;;;;;7.65;3.85;;;16.30;99.90;;;;;;5092078;28;20113;-63
2022/05/17 06:36:35;;;;;;;8.98;3.80;;;16.30;99.90;;;;;;5092544;28;20048;-62
2022/05/17 06:39:20;;;;;;;7.95;3.88;;;16.20;99.90;;;;;;5092629;28;20127;-62
2022/05/17 06:41:47;;;;;;;7.75;4.30;;;16.20;99.90;;;;;;5092238;28;20507;-62
2022/05/17 06:44:14;;;;;;;6.10;4.50;;;16.20;99.90;;;;;;5091630;28;20071;-62
2022/05/17 06:46:41;;;;;;;7.38;4.28;;;16.40;99.90;;;;;;5092505;28;20036;-62
2022/05/17 06:49:09;;;;;;;9.05;4.70;;;16.40;99.90;;;;;;5092396;28;20089;-62
2022/05/17 06:51:37;;;;;;;;;;;16.50;99.90;;;;;;5091876;28;20492;-62
2022/05/17 06:54:04;;;;;;;;;;;16.50;99.90;;;;;;5086363;28;19974;-62
2022/05/17 06:56:31;;;;;;;6.05;4.55;;;16.70;99.90;;;;;;5088436;28;19920;-62
2022/05/17 06:59:02;;;;;;;6.45;4.15;;;16.60;99.90;;;;;;5092356;28;20032;-62
2022/05/17 07:01:29;;;;;;;7.93;4.53;;;16.60;99.90;;;;;;5091855;28;20385;-62
2022/05/17 07:03:56;;;;;;;;;;;16.60;99.90;;;;;;5086700;28;20040;-62
2022/05/17 07:06:22;;;;;;;5.22;4.10;;;16.70;99.90;;;;;;5092235;28;19923;-62
2022/05/17 07:08:49;;;;;;;7.55;3.40;;;16.50;99.90;;;;;;5092244;28;20036;-62
2022/05/17 07:14:02;;;;;;;4.53;4.03;;;16.80;99.90;;;;;;5086364;28;20048;-62
2022/05/17 07:16:29;;;;;;;6.75;4.65;;;16.90;99.90;;;;;;5083860;28;20039;-62
2022/05/17 07:18:56;;;;;;;6.13;4.70;;;16.90;99.90;;;;;;5071569;28;20052;-63
2022/05/17 07:21:43;;;;;;;6.47;4.95;;;17.10;99.90;;;;;;5090563;28;20106;-62
2022/05/17 07:24:09;;;;;;;8.38;4.35;;;17.30;99.90;;;;;;5090174;28;20051;-62
2022/05/17 07:26:36;;;;;;;8.57;4.38;;;17.20;99.90;;;;;;5090169;28;20040;-62
2022/05/17 07:29:03;;;;;;;5.32;3.85;;;17.10;99.90;;;;;;5090781;28;20044;-62
2022/05/17 07:31:30;;;;;;;6.22;3.90;;;17.20;99.90;;;;;;5090686;28;20051;-62
2022/05/17 07:33:58;;;;;;;6.38;4.20;;;17.20;99.90;;;;;;5089787;28;20044;-62
2022/05/17 07:36:27;;;;;;;9.15;3.95;;;17.30;99.90;;;;;;5085453;28;20550;-62
2022/05/17 07:38:57;;;;;;;6.32;3.85;;;17.30;99.90;;;;;;5091414;28;20442;-62
2022/05/17 07:41:25;;;;;;;10.35;3.55;;;17.40;99.90;;;;;;5091173;28;20055;-62
2022/05/17 07:43:51;;;;;;;6.47;3.60;;;17.40;99.90;;;;;;5091039;28;20439;-62
2022/05/17 07:46:18;;;;;;;5.05;3.40;;;17.30;99.90;;;;;;5091467;28;20101;-62
2022/05/17 07:48:45;;;;;;;6.50;3.55;;;17.10;99.90;;;;;;5103886;22;20500;-66
2022/05/17 07:51:12;;;;;;;5.05;3.88;;;17.00;99.90;;;;;;5078285;28;20044;-66
2022/05/17 07:53:39;;;;;;;6.97;3.40;;;16.80;99.90;;;;;;5071293;28;20087;-64
2022/05/17 07:56:07;;;;;;;6.95;3.75;;;16.70;99.90;;;;;;5079389;28;20393;-66
2022/05/17 07:58:34;;;;;;;8.45;4.15;;;16.80;99.90;;;;;;5075478;28;20401;-66
2022/05/17 08:01:04;;;;;;;7.85;4.47;;;16.80;99.90;;;;;;5090835;28;20040;-64
2022/05/17 08:03:32;;;;;;;7.60;4.15;;;16.90;99.90;;;;;;5090614;28;20040;-66
2022/05/17 08:05:59;;;;;;;9.00;4.63;;;16.90;99.90;;;;;;5083095;28;20089;-66
2022/05/17 08:08:26;;;;;;;9.40;5.85;;;17.00;99.90;;;;;;5090987;28;20044;-64
2022/05/17 08:10:53;;;;;;;5.93;3.80;;;16.90;99.90;;;;;;5090837;28;20055;-66
2022/05/17 08:13:22;;;;;;;7.00;4.60;;;17.00;99.90;;;;;;5072600;28;20055;-66
2022/05/17 08:15:49;;;;;;;10.40;4.53;;;17.20;99.90;;;;;;5091092;28;20048;-66
2022/05/17 08:18:17;;;;;;;8.07;4.05;;;17.40;99.90;;;;;;5091055;28;20048;-64
2022/05/17 08:20:45;;;;;;;7.97;4.18;;;17.80;99.90;;;;;;5089982;28;20043;-64
2022/05/17 08:23:12;;;;;;;;;;;18.20;99.90;;;;;;5091586;28;20043;-64
2022/05/17 08:28:25;;;;;;;7.05;4.53;;;18.20;99.90;;;;;;5091463;28;20036;-64
2022/05/17 08:30:52;;;;;;;8.50;4.70;;;18.10;99.90;;;;;;5089842;28;20044;-64
2022/05/17 08:33:20;;;;;;;8.13;4.63;;;18.00;99.90;;;;;;5091087;28;20458;-64
2022/05/17 08:35:51;;;;;;;14.48;4.90;;;18.00;99.90;;;;;;5090846;28;20040;-64
2022/05/17 08:38:31;;;;;;;10.77;5.15;;;17.90;99.90;;;;;;5091008;28;20048;-64
2022/05/17 08:41:19;;;;;;;11.35;5.78;;;18.00;99.90;;;;;;5090157;28;20055;-64
2022/05/17 08:43:51;;;;;;;;;;;18.30;99.90;;;;;;5091125;28;20089;-64
2022/05/17 08:46:48;;;;;;;6.93;5.50;;;18.40;99.90;;;;;;5091686;28;19957;-64
2022/05/17 08:49:35;;;;;;;6.45;5.10;;;18.40;99.90;;;;;;5092055;28;20051;-64
2022/05/17 08:52:07;;;;;;;7.00;4.40;;;18.50;99.90;;;;;;5094358;28;20036;-64
2022/05/17 08:54:39;;;;;;;7.78;5.28;;;18.70;99.90;;;;;;5094539;28;20051;-64
2022/05/17 08:57:24;;;;;;;9.18;4.93;;;19.10;99.90;;;;;;5086052;28;20040;-64
2022/05/17 08:59:51;;;;;;;8.77;5.15;;;19.00;99.90;;;;;;5094214;28;20109;-64
2022/05/17 09:02:39;;;;;;;7.93;4.13;;;19.10;99.90;;;;;;5094664;28;20043;-64
2022/05/17 09:05:16;;;;;;;8.35;4.20;;;19.40;99.90;;;;;;5092572;28;20541;-64
2022/05/17 09:08:21;;;;;;;11.75;4.45;;;19.70;99.90;;;;;;5094531;28;20391;-64
2022/05/17 09:10:59;;;;;;;8.05;3.42;;;19.80;99.90;;;;;;5093899;28;20048;-64
2022/05/17 09:13:47;;;;;;;7.43;3.65;;;20.10;99.90;;;;;;5093687;28;20048;-64
2022/05/17 09:16:39;;;;;;;9.88;3.78;;;20.20;99.90;;;;;;5090982;28;20044;-64
2022/05/17 09:19:07;;;;;;;10.25;4.18;;;20.20;99.90;;;;;;5094008;28;20048;-64
2022/05/17 09:21:37;;;;;;;;;;;20.00;99.90;;;;;;5085504;28;20044;-65
2022/05/17 09:24:18;;;;;;;7.65;3.70;;;20.10;99.90;;;;;;5083920;28;19927;-65
2022/05/17 09:26:49;;;;;;;7.75;4.50;;;20.30;99.90;;;;;;5073754;28;20101;-65
2022/05/17 09:29:20;;;;;;;5.55;3.80;;;20.30;99.90;;;;;;5080483;28;20123;-65
2022/05/17 09:35:08;;;;;;;7.20;3.40;;;20.40;99.90;;;;;;5092392;28;20450;-65
2022/05/17 09:37:42;;;;;;;8.98;3.80;;;21.00;99.90;;;;;;5092996;28;20055;-65
2022/05/17 09:40:14;;;;;;;6.78;3.80;;;21.10;99.90;;;;;;5093368;28;20421;-65
2022/05/17 09:42:49;;;;;;;9.32;3.42;;;21.20;99.90;;;;;;5093199;28;20058;-65
2022/05/17 09:45:18;;;;;;;8.25;3.92;;;21.40;99.90;;;;;;5087259;28;20040;-65
2022/05/17 09:47:59;;;;;;;11.73;3.88;;;21.30;99.90;;;;;;5093466;28;20067;-65
2022/05/17 09:53:15;;;;;;;13.90;3.88;;;21.40;99.90;;;;;;5093273;28;20234;-65
2022/05/17 09:55:48;;;;;;;12.80;4.35;;;21.40;99.90;;;;;;5087235;28;20436;-65
2022/05/17 09:58:34;;;;;;;7.65;4.38;;;21.40;99.90;;;;;;5084454;28;20036;-65
2022/05/17 10:01:13;;;;;;;8.93;4.72;;;21.20;99.90;;;;;;5083395;28;20055;-65
2022/05/17 10:03:44;;;;;;;14.63;4.55;;;21.40;99.90;;;;;;5083488;28;20489;-65
2022/05/17 10:06:26;;;;;;;9.32;4.45;;;21.40;99.90;;;;;;5085767;28;20059;-65
2022/05/17 10:09:01;;;;;;;8.90;4.65;;;21.60;99.90;;;;;;5083694;28;20047;-65
2022/05/17 10:11:38;;;;;;;7.10;3.95;;;21.70;99.90;;;;;;5077702;28;20041;-65
2022/05/17 10:14:25;;;;;;;;;;;22.00;99.90;;;;;;5085252;28;20039;-65
2022/05/17 10:17:08;;;;;;;7.55;3.38;;;22.10;99.90;;;;;;5091893;28;19924;-66
2022/05/17 10:19:49;;;;;;;7.72;3.70;;;22.10;99.90;;;;;;5092918;28;20067;-65
2022/05/17 10:22:37;;;;;;;7.63;4.25;;;22.20;99.90;;;;;;5086704;28;20105;-66
2022/05/17 10:25:15;;;;;;;;;;;22.30;99.90;;;;;;5072940;28;20420;-65
2022/05/17 10:27:50;;;;;;;7.05;3.85;;;22.20;99.90;;;;;;5072466;28;20380;-65
2022/05/17 10:30:20;;;;;;;12.43;4.40;;;22.10;99.90;;;;;;5085355;28;20093;-65
2022/05/17 10:33:06;;;;;;;8.65;4.30;;;22.30;99.90;;;;;;5085975;28;20036;-65
2022/05/17 10:35:35;;;;;;;7.32;3.47;;;22.20;99.90;;;;;;5086986;28;20043;-66
2022/05/17 10:38:13;;;;;;;14.00;3.80;;;22.30;99.90;;;;;;5083170;28;20040;-66
2022/05/17 10:40:47;;;;;;;5.70;3.20;;;22.50;99.90;;;;;;5081177;28;20040;-66
2022/05/17 10:43:24;;;;;;;7.35;3.10;;;22.80;99.90;;;;;;5084207;28;20036;-65
2022/05/17 10:46:25;;;;;;;10.48;2.80;;;22.70;99.90;;;;;;5082122;28;20045;-65
2022/05/17 10:49:14;;;;;;;11.10;3.55;;;22.50;99.90;;;;;;5058654;28;20448;-66
2022/05/17 10:52:06;;;;;;;9.52;3.13;;;22.10;99.90;;;;;;5086798;28;20082;-65
2022/05/17 10:54:39;;;;;;;7.10;3.47;;;21.60;99.90;;;;;;5078864;28;20083;-65
2022/05/17 10:57:34;;;;;;;6.13;3.38;;;21.20;99.90;;;;;;5066201;28;20038;-65
2022/05/17 11:00:18;;;;;;;11.70;3.85;;;21.30;99.90;;;;;;5088970;28;20040;-66
2022/05/17 11:03:03;;;;;;;9.23;3.42;;;21.90;99.90;;;;;;5076464;28;20080;-66
2022/05/17 11:05:34;;;;;;;10.57;3.83;;;22.30;99.90;;;;;;5080130;28;20040;-66
2022/05/17 11:08:34;;;;;;;16.13;4.13;;;22.60;99.90;;;;;;5083862;28;20450;-67
2022/05/17 11:11:24;;;;;;;5.55;3.25;;;22.20;99.90;;;;;;5086216;28;20039;-67
2022/05/17 11:14:07;;;;;;;9.02;3.85;;;22.10;99.90;;;;;;5080331;28;20072;-67
2022/05/17 11:16:51;;;;;;;13.27;3.78;;;22.10;99.90;;;;;;5070043;28;20458;-67
2022/05/17 11:19:41;;;;;;;9.70;3.60;;;22.00;99.90;;;;;;5082534;28;20097;-67
2022/05/17 11:22:20;;;;;;;4.88;3.10;;;22.10;99.90;;;;;;5080439;28;20048;-67
2022/05/17 11:24:58;;;;;;;8.23;3.15;;;22.20;99.90;;;;;;5080101;28;20404;-67
2022/05/17 11:27:55;;;;;;;5.35;2.83;;;22.40;99.90;;;;;;5064823;28;20051;-68
2022/05/17 11:30:31;;;;;;;17.42;3.72;;;22.40;99.90;;;;;;5083780;28;20488;-68
2022/05/17 11:33:23;;;;;;;9.18;2.75;;;22.30;99.90;;;;;;5081074;28;20036;-67
2022/05/17 11:36:04;;;;;;;9.27;3.47;;;22.40;99.90;;;;;;5085196;28;20085;-67
2022/05/17 11:38:31;;;;;;;6.05;2.83;;;22.50;99.90;;;;;;5082833;28;20070;-68
2022/05/17 11:41:00;;;;;;;3.70;2.55;;;22.30;99.90;;;;;;5080816;28;20400;-67
2022/05/17 11:43:41;;;;;;;12.38;3.38;;;22.40;99.90;;;;;;5082387;28;20051;-67
2022/05/17 11:46:30;;;;;;;6.63;3.38;;;22.60;99.90;;;;;;5084594;28;20051;-67
2022/05/17 11:49:12;;;;;;;5.97;2.75;;;22.80;99.90;;;;;;5082502;28;20039;-67
2022/05/17 11:51:59;;;;;;;8.20;2.60;;;23.00;99.90;;;;;;5080397;28;20043;-67
2022/05/17 11:54:45;;;;;;;5.47;2.60;;;23.00;99.90;;;;;;5081640;28;20076;-67
2022/05/17 11:57:38;;;;;;;5.07;2.65;;;22.80;99.90;;;;;;5081981;28;20056;-68
2022/05/17 12:00:09;;;;;;;9.15;3.22;;;22.80;99.90;;;;;;5081177;28;20049;-68
2022/05/17 12:02:43;;;;;;;10.93;3.08;;;23.00;99.90;;;;;;5081324;28;20055;-67
2022/05/17 12:05:11;;;;;;;4.57;2.60;;;22.50;99.90;;;;;;5085122;28;20040;-67
2022/05/17 12:07:39;;;;;;;6.65;2.50;;;22.40;99.90;;;;;;5081569;28;20770;-67
2022/05/17 12:10:15;;;;;;;8.23;2.58;;;22.50;99.90;;;;;;5081375;28;20401;-67
2022/05/17 12:12:54;;;;;;;9.70;2.53;;;22.70;99.90;;;;;;5083415;28;20123;-67
2022/05/17 12:15:39;;;;;;;7.40;2.60;;;22.80;99.90;;;;;;5082959;28;20048;-67
2022/05/17 12:18:13;;;;;;;6.03;2.30;;;22.90;99.90;;;;;;5081373;28;20047;-67
2022/05/17 12:21:00;;;;;;;6.38;2.60;;;22.80;99.90;;;;;;5053150;28;20435;-68
2022/05/17 12:24:24;;;;;;;7.38;2.65;;;22.90;99.90;;;;;;5095277;28;20044;-67
2022/05/17 12:27:07;;;;;;;25.38;4.35;;;22.80;99.90;;;;;;4992914;28;20105;-68
2022/05/17 12:32:36;;;;;;;5.28;2.55;;;22.70;99.90;;;;;;5089269;28;20052;-68
2022/05/17 12:35:05;;;;;;;3.30;2.42;;;22.40;99.90;;;;;;5094915;28;20048;-68
2022/05/17 12:37:37;;;;;;;10.00;2.85;;;22.30;99.90;;;;;;5093869;28;20032;-68
2022/05/17 12:43:03;;;;;;;4.82;2.63;;;21.70;99.90;;;;;;5094910;28;20102;-67
2022/05/17 12:45:37;;;;;;;7.28;2.58;;;21.40;99.90;;;;;;5094829;28;20136;-67
2022/05/17 12:48:15;;;;;;;3.80;2.42;;;21.70;99.90;;;;;;5089388;28;20035;-67
2022/05/17 12:50:52;;;;;;;;;;;22.20;99.90;;;;;;5094875;28;20036;-67
2022/05/17 12:53:22;;;;;;;4.88;2.47;;;22.60;99.90;;;;;;5094836;28;19927;-67
2022/05/17 12:56:04;;;;;;;5.63;2.75;;;23.00;99.90;;;;;;5094886;28;20040;-67
2022/05/17 12:58:35;;;;;;;7.78;2.53;;;23.20;99.90;;;;;;5090707;28;20048;-68
2022/05/17 13:01:07;;;;;;;4.28;2.60;;;23.00;99.90;;;;;;5073671;28;20044;-67
2022/05/17 13:03:34;;;;;;;16.75;2.78;;;22.90;99.90;;;;;;5074316;28;20143;-67
2022/05/17 13:06:04;;;;;;;7.20;3.05;;;22.50;99.90;;;;;;5089547;28;20052;-66
2022/05/17 13:08:36;;;;;;;5.28;2.40;;;22.60;99.90;;;;;;5094764;28;20062;-66
2022/05/17 13:11:13;;;;;;;6.55;2.88;;;22.30;99.90;;;;;;5093355;28;20048;-66
2022/05/17 13:13:43;;;;;;;5.68;3.03;;;22.10;99.90;;;;;;5089773;28;20105;-67
2022/05/17 13:16:25;;;;;;;6.18;2.70;;;22.20;99.90;;;;;;5093941;28;20032;-67
2022/05/17 13:18:55;;;;;;;5.50;2.50;;;22.70;99.90;;;;;;5092581;28;20419;-67
2022/05/17 13:21:36;;;;;;;7.47;2.97;;;23.00;99.90;;;;;;5091290;28;20559;-66
2022/05/17 13:24:07;;;;;;;3.75;2.42;;;23.30;99.90;;;;;;5084349;28;20036;-66
2022/05/17 13:26:45;;;;;;;3.72;2.45;;;23.60;99.90;;;;;;5075058;28;20373;-66
2022/05/17 13:29:24;;;;;;;7.03;2.50;;;24.00;99.90;;;;;;5089772;28;20040;-67
2022/05/17 13:32:08;;;;;;;5.38;3.05;;;23.80;99.90;;;;;;5091485;28;20056;-67
2022/05/17 13:34:38;;;;;;;4.25;2.97;;;23.70;99.90;;;;;;5092825;28;20078;-66
2022/05/17 13:37:13;;;;;;;4.93;2.80;;;22.90;99.90;;;;;;5093007;28;20044;-67
2022/05/17 13:40:02;;;;;;;4.80;2.83;;;22.60;99.90;;;;;;5075431;28;20385;-66
2022/05/17 13:42:30;;;;;;;9.07;2.97;;;22.80;99.90;;;;;;5093851;28;20048;-66